Irini — SYZA — position and weather

sailwx.info

Track history (hours):
 
Tides and Currents Weather Stations Pressure Air Temp Water Temp Dewpoint Dewpoint Depression Visibility Wind Speed Wind Dir Waves Ship Positions

Irini

Last reported at 2014-Sep-02 22:24 UTC. Time now 2014-Sep-03 00:12 UTC.
Position N 38°02' E 023°31'.

Length 137 m; draft 5.8 m.

Type: Tanker. MMSI: 240052000.

Date/timePositionNaut miles runAvg speedWind from/ knotsBaromVisibWave heightAir tempDewpointWater temp
2014-Sep-02 22:24N 38°02' E 023°31'0 0.0
2014-Sep-02 19:30N 38°02' E 023°31'0 0.0
2014-Sep-02 15:18N 38°02' E 023°31'2 2.0
2014-Sep-02 14:33N 38°01' E 023°32'0 0.0
2014-Sep-02 13:24N 38°01' E 023°32'0 0.0
2014-Sep-02 12:21N 38°01' E 023°32'0 0.0
2014-Sep-02 11:33N 38°01' E 023°32'0 0.0
2014-Sep-02 10:03N 38°01' E 023°32'0 0.0
2014-Sep-02 09:33N 38°01' E 023°32'0 0.0
2014-Sep-02 08:06N 38°01' E 023°32'0 0.2
2014-Sep-02 07:33N 38°01' E 023°32'0 0.0
2014-Sep-02 06:33N 38°01' E 023°32'0 0.0
2014-Sep-02 05:30N 38°01' E 023°32'0 0.0
2014-Sep-02 04:30N 38°01' E 023°32'0 0.0
2014-Sep-02 03:12N 38°01' E 023°32'0 0.0
2014-Sep-02 02:18N 38°01' E 023°32'0 0.0
2014-Sep-02 01:24N 38°01' E 023°32'0 0.0
2014-Sep-02 00:30N 38°01' E 023°32'0 0.0
2014-Sep-01 23:30N 38°01' E 023°32'0 0.0
2014-Sep-01 22:30N 38°01' E 023°32'0 0.0
2014-Sep-01 21:30N 38°01' E 023°32'0 0.1
2014-Sep-01 20:27N 38°01' E 023°32'3 0.4
2014-Sep-01 13:11N 38°01' E 023°36'0 0.0
2014-Sep-01 07:17N 38°01' E 023°36'0 0.0
2014-Sep-01 06:29N 38°01' E 023°36'0 0.0
2014-Sep-01 01:05N 38°01' E 023°36'0 0.1
2014-Aug-31 21:32N 38°01' E 023°35'4 3.5
2014-Aug-31 20:28N 38°02' E 023°31'0 0.0
2014-Aug-31 19:26N 38°02' E 023°31'0 0.0
2014-Aug-31 15:20N 38°02' E 023°31'0 0.0
2014-Aug-31 14:29N 38°02' E 023°31'0 0.0
2014-Aug-31 11:29N 38°02' E 023°31'0 0.0
2014-Aug-31 09:11N 38°02' E 023°31'0 0.0
2014-Aug-31 05:20N 38°02' E 023°31'0 0.0
2014-Aug-31 03:29N 38°02' E 023°31'0 0.0
2014-Aug-31 02:05N 38°02' E 023°31'0 0.0
2014-Aug-31 01:26N 38°02' E 023°31'0 0.0
2014-Aug-31 00:26N 38°02' E 023°31'0 0.0
2014-Aug-30 23:29N 38°02' E 023°31'0 0.0
2014-Aug-30 22:32N 38°02' E 023°31'0 0.0
2014-Aug-30 21:32N 38°02' E 023°31'0 0.0
2014-Aug-30 20:29N 38°02' E 023°31'0 0.0
2014-Aug-30 19:32N 38°02' E 023°31'0 0.0
2014-Aug-30 18:32N 38°02' E 023°31'0 0.0
2014-Aug-30 17:32N 38°02' E 023°31'0 0.0
2014-Aug-30 16:32N 38°02' E 023°31'0 0.0
2014-Aug-30 15:32N 38°02' E 023°31'0 0.0
2014-Aug-30 14:32N 38°02' E 023°31'0 0.0
2014-Aug-30 13:32N 38°02' E 023°31'0 0.0
2014-Aug-30 12:32N 38°02' E 023°31'0 0.0
2014-Aug-30 11:32N 38°02' E 023°31'0 0.0
2014-Aug-30 10:32N 38°02' E 023°31'0 0.0
2014-Aug-30 09:33N 38°02' E 023°31'5 5.4
2014-Aug-30 08:33N 37°57' E 023°34'10 9.6
2014-Aug-30 07:33N 37°49' E 023°40'1111.1
2014-Aug-30 06:33N 37°40' E 023°48'  
2014-Aug-27 14:26N 37°51' E 024°29'1011.4
2014-Aug-27 13:33N 37°45' E 024°19'1211.6
2014-Aug-27 12:32N 37°37' E 024°08'1111.3
2014-Aug-27 11:33N 37°37' E 023°54'1111.1
2014-Aug-27 10:33N 37°42' E 023°42'1111.5
2014-Aug-27 09:34N 37°53' E 023°37'8 8.3
2014-Aug-27 08:33N 38°00' E 023°33'2 1.9
2014-Aug-27 07:33N 38°02' E 023°31'0 0.0
2014-Aug-27 06:31N 38°02' E 023°31'0 0.0
2014-Aug-27 05:19N 38°02' E 023°31'0 0.0
2014-Aug-27 04:28N 38°02' E 023°31'0 0.5
2014-Aug-27 03:34N 38°02' E 023°31'0 0.0
2014-Aug-27 02:31N 38°02' E 023°31'0 0.0
2014-Aug-27 01:31N 38°02' E 023°31'0 0.0
2014-Aug-27 00:28N 38°02' E 023°31'0 0.0
2014-Aug-26 23:28N 38°02' E 023°31'0 0.0
2014-Aug-26 22:31N 38°02' E 023°31'0 0.0
2014-Aug-26 21:31N 38°02' E 023°31'0 0.0
2014-Aug-26 20:28N 38°02' E 023°31'0 0.0
2014-Aug-26 19:22N 38°02' E 023°31'0 0.0
2014-Aug-26 18:31N 38°02' E 023°31'0 0.0
2014-Aug-26 17:28N 38°02' E 023°31'0 0.0
2014-Aug-26 16:28N 38°02' E 023°31'0 0.0
2014-Aug-26 15:28N 38°02' E 023°31'0 0.0
2014-Aug-26 14:25N 38°02' E 023°31'0 0.0
2014-Aug-26 13:31N 38°02' E 023°31'0 0.0
2014-Aug-26 12:31N 38°02' E 023°31'0 0.0
2014-Aug-26 11:25N 38°02' E 023°31'0 0.0
2014-Aug-26 10:31N 38°02' E 023°31'0 0.0
2014-Aug-26 09:31N 38°02' E 023°31'0 0.0
2014-Aug-26 08:31N 38°02' E 023°31'0 0.0
2014-Aug-26 07:31N 38°02' E 023°31'0 0.0
2014-Aug-26 06:31N 38°02' E 023°31'1 0.8
2014-Aug-26 05:33N 38°01' E 023°31'7 7.1
2014-Aug-26 04:33N 37°55' E 023°36'2 2.3
2014-Aug-26 03:33N 37°53' E 023°36'4 3.6
2014-Aug-26 02:33N 37°51' E 023°40'8 8.0
2014-Aug-26 01:33N 37°43' E 023°44'10 9.7
2014-Aug-26 00:29N 37°37' E 023°55'2410.6
2014-Aug-25 22:13N 37°47' E 024°22'  
Track history (hours):
 
Tides and Currents Weather Stations Pressure Air Temp Water Temp Dewpoint Dewpoint Depression Visibility Wind Speed Wind Dir Waves Ship Positions

Irini

Last reported at 2014-Sep-02 22:24 UTC. Time now 2014-Sep-03 00:12 UTC.
Position N 38°02' E 023°31'.

Length 137 m; draft 5.8 m.

Type: Tanker. MMSI: 240052000.

Date/timePositionNaut miles runAvg speedWind from/ knotsBaromVisibWave heightAir tempDewpointWater temp
2014-Sep-02 22:24N 38°02' E 023°31'0 0.0
2014-Sep-02 19:30N 38°02' E 023°31'0 0.0
2014-Sep-02 15:18N 38°02' E 023°31'2 2.0
2014-Sep-02 14:33N 38°01' E 023°32'0 0.0
2014-Sep-02 13:24N 38°01' E 023°32'0 0.0
2014-Sep-02 12:21N 38°01' E 023°32'0 0.0
2014-Sep-02 11:33N 38°01' E 023°32'0 0.0
2014-Sep-02 10:03N 38°01' E 023°32'0 0.0
2014-Sep-02 09:33N 38°01' E 023°32'0 0.0
2014-Sep-02 08:06N 38°01' E 023°32'0 0.2
2014-Sep-02 07:33N 38°01' E 023°32'0 0.0
2014-Sep-02 06:33N 38°01' E 023°32'0 0.0
2014-Sep-02 05:30N 38°01' E 023°32'0 0.0
2014-Sep-02 04:30N 38°01' E 023°32'0 0.0
2014-Sep-02 03:12N 38°01' E 023°32'0 0.0
2014-Sep-02 02:18N 38°01' E 023°32'0 0.0
2014-Sep-02 01:24N 38°01' E 023°32'0 0.0
2014-Sep-02 00:30N 38°01' E 023°32'0 0.0
2014-Sep-01 23:30N 38°01' E 023°32'0 0.0
2014-Sep-01 22:30N 38°01' E 023°32'0 0.0
2014-Sep-01 21:30N 38°01' E 023°32'0 0.1
2014-Sep-01 20:27N 38°01' E 023°32'3 0.4
2014-Sep-01 13:11N 38°01' E 023°36'0 0.0
2014-Sep-01 07:17N 38°01' E 023°36'0 0.0
2014-Sep-01 06:29N 38°01' E 023°36'0 0.0
2014-Sep-01 01:05N 38°01' E 023°36'0 0.1
2014-Aug-31 21:32N 38°01' E 023°35'4 3.5
2014-Aug-31 20:28N 38°02' E 023°31'0 0.0
2014-Aug-31 19:26N 38°02' E 023°31'0 0.0
2014-Aug-31 15:20N 38°02' E 023°31'0 0.0
2014-Aug-31 14:29N 38°02' E 023°31'0 0.0
2014-Aug-31 11:29N 38°02' E 023°31'0 0.0
2014-Aug-31 09:11N 38°02' E 023°31'0 0.0
2014-Aug-31 05:20N 38°02' E 023°31'0 0.0
2014-Aug-31 03:29N 38°02' E 023°31'0 0.0
2014-Aug-31 02:05N 38°02' E 023°31'0 0.0
2014-Aug-31 01:26N 38°02' E 023°31'0 0.0
2014-Aug-31 00:26N 38°02' E 023°31'0 0.0
2014-Aug-30 23:29N 38°02' E 023°31'0 0.0
2014-Aug-30 22:32N 38°02' E 023°31'0 0.0
2014-Aug-30 21:32N 38°02' E 023°31'0 0.0
2014-Aug-30 20:29N 38°02' E 023°31'0 0.0
2014-Aug-30 19:32N 38°02' E 023°31'0 0.0
2014-Aug-30 18:32N 38°02' E 023°31'0 0.0
2014-Aug-30 17:32N 38°02' E 023°31'0 0.0
2014-Aug-30 16:32N 38°02' E 023°31'0 0.0
2014-Aug-30 15:32N 38°02' E 023°31'0 0.0
2014-Aug-30 14:32N 38°02' E 023°31'0 0.0
2014-Aug-30 13:32N 38°02' E 023°31'0 0.0
2014-Aug-30 12:32N 38°02' E 023°31'0 0.0
2014-Aug-30 11:32N 38°02' E 023°31'0 0.0
2014-Aug-30 10:32N 38°02' E 023°31'0 0.0
2014-Aug-30 09:33N 38°02' E 023°31'5 5.4
2014-Aug-30 08:33N 37°57' E 023°34'10 9.6
2014-Aug-30 07:33N 37°49' E 023°40'1111.1
2014-Aug-30 06:33N 37°40' E 023°48'  
2014-Aug-27 14:26N 37°51' E 024°29'1011.4
2014-Aug-27 13:33N 37°45' E 024°19'1211.6
2014-Aug-27 12:32N 37°37' E 024°08'1111.3
2014-Aug-27 11:33N 37°37' E 023°54'1111.1
2014-Aug-27 10:33N 37°42' E 023°42'1111.5
2014-Aug-27 09:34N 37°53' E 023°37'8 8.3
2014-Aug-27 08:33N 38°00' E 023°33'2 1.9
2014-Aug-27 07:33N 38°02' E 023°31'0 0.0
2014-Aug-27 06:31N 38°02' E 023°31'0 0.0
2014-Aug-27 05:19N 38°02' E 023°31'0 0.0
2014-Aug-27 04:28N 38°02' E 023°31'0 0.5
2014-Aug-27 03:34N 38°02' E 023°31'0 0.0
2014-Aug-27 02:31N 38°02' E 023°31'0 0.0
2014-Aug-27 01:31N 38°02' E 023°31'0 0.0
2014-Aug-27 00:28N 38°02' E 023°31'0 0.0
2014-Aug-26 23:28N 38°02' E 023°31'0 0.0
2014-Aug-26 22:31N 38°02' E 023°31'0 0.0
2014-Aug-26 21:31N 38°02' E 023°31'0 0.0
2014-Aug-26 20:28N 38°02' E 023°31'0 0.0
2014-Aug-26 19:22N 38°02' E 023°31'0 0.0
2014-Aug-26 18:31N 38°02' E 023°31'0 0.0
2014-Aug-26 17:28N 38°02' E 023°31'0 0.0
2014-Aug-26 16:28N 38°02' E 023°31'0 0.0
2014-Aug-26 15:28N 38°02' E 023°31'0 0.0
2014-Aug-26 14:25N 38°02' E 023°31'0 0.0
2014-Aug-26 13:31N 38°02' E 023°31'0 0.0
2014-Aug-26 12:31N 38°02' E 023°31'0 0.0
2014-Aug-26 11:25N 38°02' E 023°31'0 0.0
2014-Aug-26 10:31N 38°02' E 023°31'0 0.0
2014-Aug-26 09:31N 38°02' E 023°31'0 0.0
2014-Aug-26 08:31N 38°02' E 023°31'0 0.0
2014-Aug-26 07:31N 38°02' E 023°31'0 0.0
2014-Aug-26 06:31N 38°02' E 023°31'1 0.8
2014-Aug-26 05:33N 38°01' E 023°31'7 7.1
2014-Aug-26 04:33N 37°55' E 023°36'2 2.3
2014-Aug-26 03:33N 37°53' E 023°36'4 3.6
2014-Aug-26 02:33N 37°51' E 023°40'8 8.0
2014-Aug-26 01:33N 37°43' E 023°44'10 9.7
2014-Aug-26 00:29N 37°37' E 023°55'2410.6
2014-Aug-25 22:13N 37°47' E 024°22'  

Dump ship's entire track history